createdAt,value
2018-12-26T00:00:13.390Z,3.50
2018-12-26T00:02:17.622Z,3.50
2018-12-26T00:04:22.022Z,3.50
2018-12-26T00:06:26.391Z,3.50
2018-12-26T00:08:30.760Z,3.50
2018-12-26T00:10:35.123Z,3.50
2018-12-26T00:12:39.533Z,3.40
2018-12-26T00:14:43.943Z,3.40
2018-12-26T00:16:48.324Z,3.30
2018-12-26T00:18:52.662Z,3.30
2018-12-26T00:20:57.112Z,3.30
2018-12-26T00:23:01.459Z,3.30
2018-12-26T00:25:05.916Z,3.30
2018-12-26T00:27:10.315Z,3.30
2018-12-26T00:29:14.666Z,3.30
2018-12-26T00:31:19.116Z,3.30
2018-12-26T00:33:23.528Z,3.30
2018-12-26T00:35:29.017Z,3.20
2018-12-26T00:37:33.693Z,3.30
2018-12-26T00:39:38.127Z,3.30
2018-12-26T00:41:42.609Z,3.30
2018-12-26T00:43:47.068Z,3.20
2018-12-26T00:45:58.020Z,3.20
2018-12-26T00:48:02.442Z,3.20
2018-12-26T00:50:07.601Z,3.10
2018-12-26T00:52:12.046Z,3.10
2018-12-26T00:54:16.381Z,3.10
2018-12-26T00:56:20.937Z,3.10
2018-12-26T00:58:25.181Z,3.10
2018-12-26T01:00:30.229Z,3.00
2018-12-26T01:02:34.647Z,3.00
2018-12-26T01:04:39.115Z,3.00
2018-12-26T01:06:43.580Z,3.10
2018-12-26T01:08:50.726Z,3.00
2018-12-26T01:10:56.159Z,3.00
2018-12-26T01:13:00.555Z,3.00
2018-12-26T01:15:04.954Z,2.90
2018-12-26T01:17:09.331Z,3.00
2018-12-26T01:19:13.786Z,2.90
2018-12-26T01:21:18.194Z,3.00
2018-12-26T01:23:22.594Z,3.00
2018-12-26T01:25:27.110Z,3.00
2018-12-26T01:27:31.482Z,3.00
2018-12-26T01:29:35.895Z,2.90
2018-12-26T01:31:40.262Z,2.90
2018-12-26T01:33:44.666Z,2.90
2018-12-26T01:35:49.702Z,3.00
2018-12-26T01:37:54.066Z,2.90
2018-12-26T01:39:58.509Z,2.90
2018-12-26T01:42:02.927Z,2.80
2018-12-26T01:44:07.294Z,2.80
2018-12-26T01:46:11.680Z,2.90
2018-12-26T01:48:16.030Z,2.90
2018-12-26T01:50:20.452Z,2.80
2018-12-26T01:52:24.812Z,2.80
2018-12-26T01:54:29.171Z,2.80
2018-12-26T01:56:33.566Z,2.80
2018-12-26T01:58:37.941Z,2.70
2018-12-26T02:00:42.426Z,2.70
2018-12-26T02:02:46.816Z,2.70
2018-12-26T02:04:51.246Z,2.70
2018-12-26T02:06:55.623Z,2.70
2018-12-26T02:09:00.119Z,2.60
2018-12-26T02:11:04.516Z,2.60
2018-12-26T02:13:08.951Z,2.60
2018-12-26T02:15:13.371Z,2.60
2018-12-26T02:17:17.783Z,2.50
2018-12-26T02:19:22.115Z,2.50
2018-12-26T02:21:26.503Z,2.60
2018-12-26T02:23:30.926Z,2.60
2018-12-26T02:25:35.316Z,2.60
2018-12-26T02:27:39.680Z,2.50
2018-12-26T02:29:44.039Z,2.50
2018-12-26T02:31:48.429Z,2.50
2018-12-26T02:33:52.757Z,2.40
2018-12-26T02:35:57.103Z,2.50
2018-12-26T02:38:02.590Z,2.50
2018-12-26T02:40:07.075Z,2.50
2018-12-26T02:42:11.498Z,2.50
2018-12-26T02:44:15.967Z,2.50
2018-12-26T02:46:20.441Z,2.50
2018-12-26T02:48:24.727Z,2.50
2018-12-26T02:50:29.117Z,2.40
2018-12-26T02:52:33.506Z,2.40
2018-12-26T02:54:37.975Z,2.40
2018-12-26T02:56:47.757Z,2.40
2018-12-26T02:58:46.882Z,2.40
2018-12-26T03:00:51.273Z,2.40
2018-12-26T03:02:55.648Z,2.40
2018-12-26T03:04:59.979Z,2.40
2018-12-26T03:07:04.439Z,2.40
2018-12-26T03:09:09.095Z,2.40
2018-12-26T03:11:13.451Z,2.40
2018-12-26T03:13:17.955Z,2.40
2018-12-26T03:15:22.332Z,2.40
2018-12-26T03:17:26.706Z,2.40
2018-12-26T03:19:31.138Z,2.40
2018-12-26T03:21:35.521Z,2.40
2018-12-26T03:23:39.877Z,2.40
2018-12-26T03:25:44.300Z,2.40
2018-12-26T03:27:48.662Z,2.40
2018-12-26T03:29:53.088Z,2.40
2018-12-26T03:31:57.478Z,2.40
2018-12-26T03:34:01.876Z,2.30
2018-12-26T03:36:06.274Z,2.30
2018-12-26T03:38:10.711Z,2.30
2018-12-26T03:40:15.122Z,2.30
2018-12-26T03:42:19.567Z,2.30
2018-12-26T03:44:24.105Z,2.30
2018-12-26T03:46:28.617Z,2.30
2018-12-26T03:48:33.013Z,2.30
2018-12-26T03:50:37.463Z,2.20
2018-12-26T03:52:41.962Z,2.30
2018-12-26T03:54:46.405Z,2.20
2018-12-26T03:56:50.843Z,2.30
2018-12-26T03:58:55.266Z,2.30
2018-12-26T04:00:59.734Z,2.30
2018-12-26T04:03:04.182Z,2.30
2018-12-26T04:05:08.552Z,2.30
2018-12-26T04:07:12.930Z,2.30
2018-12-26T04:09:17.383Z,2.30
2018-12-26T04:11:21.874Z,2.20
2018-12-26T04:13:26.294Z,2.20
2018-12-26T04:15:30.738Z,2.20
2018-12-26T04:17:35.135Z,2.20
2018-12-26T04:19:39.573Z,2.30
2018-12-26T04:21:44.058Z,2.30
2018-12-26T04:23:48.541Z,2.30
2018-12-26T04:25:52.938Z,2.40
2018-12-26T04:27:57.305Z,2.40
2018-12-26T04:30:01.696Z,2.40
2018-12-26T04:32:06.310Z,2.50
2018-12-26T04:34:10.668Z,2.40
2018-12-26T04:36:15.019Z,2.50
2018-12-26T04:38:19.515Z,2.50
2018-12-26T04:40:23.912Z,2.50
2018-12-26T04:42:28.236Z,2.50
2018-12-26T04:44:32.655Z,2.50
2018-12-26T04:46:37.098Z,2.40
2018-12-26T04:48:41.503Z,2.40
2018-12-26T04:50:45.870Z,2.50
2018-12-26T04:52:50.245Z,2.50
2018-12-26T04:54:56.389Z,2.50
2018-12-26T04:56:59.061Z,2.40
2018-12-26T04:59:03.416Z,2.40
2018-12-26T05:01:07.800Z,2.50
2018-12-26T05:03:12.189Z,2.50
2018-12-26T05:05:16.551Z,2.50
2018-12-26T05:07:21.021Z,2.50
2018-12-26T05:09:25.350Z,2.50
2018-12-26T05:11:29.729Z,2.50
2018-12-26T05:13:34.173Z,2.60
2018-12-26T05:15:38.590Z,2.60
2018-12-26T05:17:43.046Z,2.60
2018-12-26T05:19:47.442Z,2.60
2018-12-26T05:21:51.842Z,2.60
2018-12-26T05:23:56.221Z,2.60
2018-12-26T05:26:00.575Z,2.70
2018-12-26T05:28:05.064Z,2.70
2018-12-26T05:30:09.523Z,2.70
2018-12-26T05:32:13.890Z,2.70
2018-12-26T05:34:18.274Z,2.80
2018-12-26T05:36:22.685Z,2.80
2018-12-26T05:38:27.066Z,2.70
2018-12-26T05:40:31.438Z,2.80
2018-12-26T05:42:35.904Z,2.80
2018-12-26T05:44:40.354Z,2.80
2018-12-26T05:46:44.719Z,2.90
2018-12-26T05:48:49.127Z,2.90
2018-12-26T05:50:53.500Z,2.90
2018-12-26T05:52:57.875Z,2.90
2018-12-26T05:55:02.264Z,2.90
2018-12-26T05:57:06.837Z,2.90
2018-12-26T05:59:11.230Z,2.90
2018-12-26T06:01:15.616Z,2.90
2018-12-26T06:03:20.002Z,2.90
2018-12-26T06:05:24.413Z,3.00
2018-12-26T06:07:28.738Z,3.00
2018-12-26T06:09:33.114Z,3.00
2018-12-26T06:11:37.616Z,3.00
2018-12-26T06:13:41.950Z,3.00
2018-12-26T06:15:46.285Z,3.10
2018-12-26T06:17:50.686Z,3.00
2018-12-26T06:19:55.082Z,3.00
2018-12-26T06:21:59.475Z,3.10
2018-12-26T06:24:03.846Z,3.10
2018-12-26T06:26:08.263Z,3.00
2018-12-26T06:28:12.646Z,3.00
2018-12-26T06:30:16.997Z,3.10
2018-12-26T06:32:21.363Z,3.10
2018-12-26T06:34:25.710Z,3.10
2018-12-26T06:36:30.070Z,3.10
2018-12-26T06:38:34.441Z,3.10
2018-12-26T06:40:38.978Z,3.10
2018-12-26T06:42:43.379Z,3.10
2018-12-26T06:44:47.743Z,3.10
2018-12-26T06:46:52.117Z,3.10
2018-12-26T06:48:56.502Z,3.10
2018-12-26T06:51:00.894Z,3.10
2018-12-26T06:53:05.248Z,3.10
2018-12-26T06:55:10.573Z,3.10
2018-12-26T06:57:14.991Z,3.10
2018-12-26T06:59:20.367Z,3.10
2018-12-26T07:01:24.774Z,3.20
2018-12-26T07:03:29.182Z,3.20
2018-12-26T07:05:33.574Z,3.10
2018-12-26T07:07:38.129Z,3.20
2018-12-26T07:09:42.538Z,3.20
2018-12-26T07:11:46.949Z,3.20
2018-12-26T07:13:51.318Z,3.20
2018-12-26T07:15:55.785Z,3.20
2018-12-26T07:18:00.165Z,3.20
2018-12-26T07:20:04.697Z,3.20
2018-12-26T07:22:09.154Z,3.30
2018-12-26T07:24:13.537Z,3.20
2018-12-26T07:26:17.966Z,3.30
2018-12-26T07:28:22.913Z,3.20
2018-12-26T07:30:27.360Z,3.30
2018-12-26T07:32:31.798Z,3.30
2018-12-26T07:34:42.196Z,3.20
2018-12-26T07:36:41.490Z,3.20
2018-12-26T07:38:45.864Z,3.20
2018-12-26T07:40:50.250Z,3.30
2018-12-26T07:42:55.334Z,3.30
2018-12-26T07:44:59.705Z,3.30
2018-12-26T07:47:04.039Z,3.40
2018-12-26T07:49:08.433Z,3.30
2018-12-26T07:51:12.846Z,3.30
2018-12-26T07:53:17.193Z,3.30
2018-12-26T07:55:21.569Z,3.40
2018-12-26T07:57:26.674Z,3.40
2018-12-26T07:59:37.527Z,3.40
2018-12-26T08:01:35.414Z,3.40
2018-12-26T08:03:39.957Z,3.40
2018-12-26T08:05:44.326Z,3.40
2018-12-26T08:07:48.673Z,3.40
2018-12-26T08:09:53.082Z,3.40
2018-12-26T08:11:57.511Z,3.40
2018-12-26T08:14:01.894Z,3.40
2018-12-26T08:16:06.318Z,3.40
2018-12-26T08:18:10.661Z,3.50
2018-12-26T08:20:15.059Z,3.50
2018-12-26T08:22:19.485Z,3.50
2018-12-26T08:24:23.905Z,3.50
2018-12-26T08:26:28.943Z,3.50
2018-12-26T08:28:33.309Z,3.40
2018-12-26T08:30:37.676Z,3.40
2018-12-26T08:32:42.137Z,3.50
2018-12-26T08:34:46.574Z,3.50
2018-12-26T08:36:51.001Z,3.50
2018-12-26T08:38:55.396Z,3.60
2018-12-26T08:40:59.772Z,3.60
2018-12-26T08:43:04.131Z,3.50
2018-12-26T08:45:08.605Z,3.50
2018-12-26T08:47:13.081Z,3.60
2018-12-26T08:49:19.235Z,3.60
2018-12-26T08:51:23.626Z,3.60
2018-12-26T08:53:28.450Z,3.60
2018-12-26T08:55:32.818Z,3.60
2018-12-26T08:57:37.225Z,3.60
2018-12-26T08:59:44.399Z,3.70
2018-12-26T09:01:48.799Z,3.70
2018-12-26T09:03:53.230Z,3.70
2018-12-26T09:05:57.643Z,3.70
2018-12-26T09:08:02.033Z,3.70
2018-12-26T09:10:07.033Z,3.80
2018-12-26T09:12:11.474Z,3.70
2018-12-26T09:14:15.956Z,3.80
2018-12-26T09:16:20.320Z,3.80
2018-12-26T09:18:24.717Z,3.80
2018-12-26T09:20:29.544Z,3.80
2018-12-26T09:22:33.885Z,3.80
2018-12-26T09:24:38.369Z,3.80
2018-12-26T09:26:42.762Z,3.90
2018-12-26T09:28:47.634Z,3.90
2018-12-26T09:30:51.998Z,3.90
2018-12-26T09:32:56.426Z,3.90
2018-12-26T09:35:01.096Z,4.00
2018-12-26T09:37:05.526Z,4.00
2018-12-26T09:39:09.886Z,4.00
2018-12-26T09:41:14.258Z,4.00
2018-12-26T09:43:18.644Z,4.10
2018-12-26T09:45:23.060Z,4.10
2018-12-26T09:47:27.397Z,4.10
2018-12-26T09:49:31.738Z,4.10
2018-12-26T09:51:36.146Z,4.00
2018-12-26T09:53:40.506Z,4.00
2018-12-26T09:55:44.888Z,4.10
2018-12-26T09:57:49.284Z,4.10
2018-12-26T09:59:53.605Z,4.10
2018-12-26T10:01:58.036Z,4.20
2018-12-26T10:04:02.392Z,4.20
2018-12-26T10:06:06.779Z,4.20
2018-12-26T10:08:11.152Z,4.20
2018-12-26T10:10:15.728Z,4.20
2018-12-26T10:12:20.437Z,4.20
2018-12-26T10:14:24.795Z,4.20
2018-12-26T10:16:29.596Z,4.20
2018-12-26T10:18:33.936Z,4.30
2018-12-26T10:20:38.291Z,4.30
2018-12-26T10:22:42.728Z,4.30
2018-12-26T10:24:47.107Z,4.30
2018-12-26T10:26:51.529Z,4.30
2018-12-26T10:29:00.909Z,4.30
2018-12-26T10:31:00.254Z,4.30
2018-12-26T10:33:04.742Z,4.30
2018-12-26T10:35:09.126Z,4.40
2018-12-26T10:37:13.498Z,4.30
2018-12-26T10:39:17.888Z,4.40
2018-12-26T10:41:22.238Z,4.40
2018-12-26T10:43:26.643Z,4.40
2018-12-26T10:45:31.029Z,4.40
2018-12-26T10:47:35.470Z,4.40
2018-12-26T10:49:39.796Z,4.40
2018-12-26T10:51:44.246Z,4.40
2018-12-26T10:53:48.568Z,4.40
2018-12-26T10:55:52.946Z,4.40
2018-12-26T10:57:57.350Z,4.40
2018-12-26T11:00:02.463Z,4.40
2018-12-26T11:02:06.866Z,4.40
2018-12-26T11:04:11.269Z,4.40
2018-12-26T11:06:15.718Z,4.40
2018-12-26T11:08:20.098Z,4.40
2018-12-26T11:10:24.507Z,4.50
2018-12-26T11:12:28.890Z,4.40
2018-12-26T11:14:33.268Z,4.50
2018-12-26T11:16:37.706Z,4.50
2018-12-26T11:18:42.189Z,4.50
2018-12-26T11:20:47.756Z,4.60
2018-12-26T11:22:52.166Z,4.60
2018-12-26T11:24:56.583Z,4.60
2018-12-26T11:27:00.945Z,4.70
2018-12-26T11:29:05.371Z,4.70
2018-12-26T11:31:10.565Z,4.70
2018-12-26T11:33:14.982Z,4.70
2018-12-26T11:35:19.477Z,4.70
2018-12-26T11:37:24.078Z,4.70
2018-12-26T11:39:28.527Z,4.70
2018-12-26T11:41:33.096Z,4.70
2018-12-26T11:43:37.516Z,4.70
2018-12-26T11:45:41.930Z,4.80
2018-12-26T11:47:46.920Z,4.80
2018-12-26T11:49:51.319Z,4.80
2018-12-26T11:51:55.740Z,4.80
2018-12-26T11:54:00.181Z,4.80
2018-12-26T11:56:04.618Z,4.80
2018-12-26T11:58:09.069Z,4.80
2018-12-26T12:00:13.538Z,4.80
2018-12-26T12:02:20.677Z,4.90
2018-12-26T12:04:22.618Z,4.80
2018-12-26T12:06:27.055Z,4.90
2018-12-26T12:08:31.526Z,4.90
2018-12-26T12:10:35.961Z,4.90
2018-12-26T12:12:40.506Z,5.00
2018-12-26T12:14:46.072Z,5.00
2018-12-26T12:16:50.546Z,5.00
2018-12-26T12:18:55.122Z,5.00
2018-12-26T12:20:59.631Z,5.00
2018-12-26T12:23:04.100Z,5.00
2018-12-26T12:25:08.494Z,5.10
2018-12-26T12:27:12.888Z,5.10
2018-12-26T12:29:17.323Z,5.20
2018-12-26T12:31:21.726Z,5.20
2018-12-26T12:33:26.089Z,5.20
2018-12-26T12:35:30.598Z,5.20
2018-12-26T12:37:35.106Z,5.30
2018-12-26T12:39:39.508Z,5.30
2018-12-26T12:41:44.940Z,5.40
2018-12-26T12:43:49.434Z,5.40
2018-12-26T12:45:53.845Z,5.40
2018-12-26T12:47:58.262Z,5.40
2018-12-26T12:50:02.769Z,5.50
2018-12-26T12:52:07.194Z,5.40
2018-12-26T12:54:11.614Z,5.40
2018-12-26T12:56:16.040Z,5.50
2018-12-26T12:58:20.542Z,5.50
2018-12-26T13:00:24.986Z,5.50
2018-12-26T13:02:29.388Z,5.50
2018-12-26T13:04:33.881Z,5.50
2018-12-26T13:06:38.317Z,5.40
2018-12-26T13:08:42.706Z,5.50
2018-12-26T13:10:48.115Z,5.50
2018-12-26T13:12:52.568Z,5.50
2018-12-26T13:14:56.962Z,5.50
2018-12-26T13:17:01.333Z,5.50
2018-12-26T13:19:05.768Z,5.50
2018-12-26T13:21:10.236Z,5.50
2018-12-26T13:23:14.622Z,5.50
2018-12-26T13:25:19.035Z,5.60
2018-12-26T13:27:23.471Z,5.60
2018-12-26T13:29:27.868Z,5.60
2018-12-26T13:31:32.379Z,5.60
2018-12-26T13:33:36.733Z,5.60
2018-12-26T13:35:41.143Z,5.70
2018-12-26T13:37:46.709Z,5.60
2018-12-26T13:39:51.199Z,5.60
2018-12-26T13:41:55.685Z,5.60
2018-12-26T13:44:00.079Z,5.60
2018-12-26T13:46:04.715Z,5.70
2018-12-26T13:48:09.114Z,5.60
2018-12-26T13:50:13.573Z,5.70
2018-12-26T13:52:17.973Z,5.70
2018-12-26T13:54:22.375Z,5.70
2018-12-26T13:56:26.725Z,5.70
2018-12-26T13:58:31.093Z,5.70
2018-12-26T14:00:35.474Z,5.70
2018-12-26T14:02:39.912Z,5.70
2018-12-26T14:04:44.305Z,5.70
2018-12-26T14:06:49.243Z,5.70
2018-12-26T14:08:53.669Z,5.80
2018-12-26T14:10:58.096Z,5.80
2018-12-26T14:13:02.481Z,5.70
2018-12-26T14:15:07.854Z,5.70
2018-12-26T14:17:12.254Z,5.80
2018-12-26T14:19:16.631Z,5.80
2018-12-26T14:21:20.994Z,5.80
2018-12-26T14:23:25.409Z,5.80
2018-12-26T14:25:29.791Z,5.90
2018-12-26T14:27:34.149Z,5.90
2018-12-26T14:29:38.615Z,5.90
2018-12-26T14:31:42.998Z,5.90
2018-12-26T14:33:47.431Z,5.90
2018-12-26T14:35:55.661Z,5.90
2018-12-26T14:38:00.096Z,5.90
2018-12-26T14:40:05.007Z,5.90
2018-12-26T14:42:09.416Z,5.90
2018-12-26T14:44:13.898Z,5.90
2018-12-26T14:46:18.281Z,5.90
2018-12-26T14:48:22.723Z,5.90
2018-12-26T14:50:27.114Z,5.90
2018-12-26T14:52:31.602Z,5.90
2018-12-26T14:54:36.015Z,5.90
2018-12-26T14:56:40.378Z,5.90
2018-12-26T14:58:44.816Z,5.90
2018-12-26T15:00:49.217Z,6.00
2018-12-26T15:02:53.727Z,6.00
2018-12-26T15:04:58.137Z,6.10
2018-12-26T15:07:02.565Z,6.00
2018-12-26T15:09:08.219Z,6.00
2018-12-26T15:11:12.735Z,5.90
2018-12-26T15:13:17.223Z,5.90
2018-12-26T15:15:21.562Z,5.90
2018-12-26T15:17:25.972Z,6.00
2018-12-26T15:19:30.405Z,5.90
2018-12-26T15:21:34.810Z,5.90
2018-12-26T15:23:39.232Z,5.90
2018-12-26T15:25:43.658Z,5.80
2018-12-26T15:27:48.072Z,5.80
2018-12-26T15:29:53.594Z,5.90
2018-12-26T15:31:57.974Z,5.90
2018-12-26T15:34:02.545Z,5.90
2018-12-26T15:36:07.944Z,5.90
2018-12-26T15:38:12.310Z,5.90
2018-12-26T15:40:16.721Z,5.90
2018-12-26T15:42:21.086Z,5.90
2018-12-26T15:44:25.503Z,5.90
2018-12-26T15:46:29.895Z,5.90
2018-12-26T15:48:34.250Z,5.90
2018-12-26T15:50:39.440Z,6.00
2018-12-26T15:52:43.848Z,6.00
2018-12-26T15:54:48.300Z,5.90
2018-12-26T15:56:53.695Z,6.00
2018-12-26T15:58:58.070Z,6.00
2018-12-26T16:01:02.488Z,5.90
2018-12-26T16:03:06.908Z,6.00
2018-12-26T16:05:11.289Z,6.00
2018-12-26T16:07:15.758Z,6.00
2018-12-26T16:09:20.231Z,6.00
2018-12-26T16:11:24.622Z,6.00
2018-12-26T16:13:29.007Z,6.00
2018-12-26T16:15:33.349Z,6.00
2018-12-26T16:17:37.717Z,6.00
2018-12-26T16:19:42.265Z,6.00
2018-12-26T16:21:46.637Z,6.00
2018-12-26T16:23:51.010Z,6.00
2018-12-26T16:25:56.270Z,6.00
2018-12-26T16:28:00.646Z,6.00
2018-12-26T16:30:05.273Z,6.00
2018-12-26T16:32:09.814Z,6.00
2018-12-26T16:34:14.091Z,6.00
2018-12-26T16:36:18.458Z,6.00
2018-12-26T16:38:22.880Z,6.00
2018-12-26T16:40:27.242Z,6.00
2018-12-26T16:42:31.659Z,6.00
2018-12-26T16:44:36.053Z,6.00
2018-12-26T16:46:40.419Z,6.00
2018-12-26T16:48:44.882Z,6.00
2018-12-26T16:50:49.302Z,6.00
2018-12-26T16:52:53.694Z,6.00
2018-12-26T16:54:58.194Z,6.00
2018-12-26T16:57:02.631Z,6.00
2018-12-26T16:59:07.006Z,6.00
2018-12-26T17:01:11.481Z,6.00
2018-12-26T17:03:15.869Z,6.00
2018-12-26T17:05:20.251Z,6.00
2018-12-26T17:07:24.664Z,6.00
2018-12-26T17:09:29.146Z,6.00
2018-12-26T17:11:33.568Z,6.00
2018-12-26T17:13:38.642Z,6.00
2018-12-26T17:15:43.606Z,6.10
2018-12-26T17:17:47.997Z,6.00
2018-12-26T17:19:52.454Z,6.10
2018-12-26T17:21:56.806Z,6.10
2018-12-26T17:24:02.551Z,6.10
2018-12-26T17:26:06.919Z,6.20
2018-12-26T17:28:11.365Z,6.10
2018-12-26T17:30:15.716Z,6.10
2018-12-26T17:32:20.118Z,6.10
2018-12-26T17:34:24.481Z,6.20
2018-12-26T17:36:29.594Z,6.10
2018-12-26T17:38:33.960Z,6.20
2018-12-26T17:40:38.370Z,6.20
2018-12-26T17:42:42.840Z,6.10
2018-12-26T17:44:47.251Z,6.20
2018-12-26T17:46:51.655Z,6.20
2018-12-26T17:48:56.063Z,6.20
2018-12-26T17:51:05.522Z,6.20
2018-12-26T17:53:12.754Z,6.20
2018-12-26T17:55:27.923Z,6.20
2018-12-26T17:57:36.809Z,6.20
2018-12-26T18:00:22.784Z,6.30
2018-12-26T18:02:31.013Z,6.30
2018-12-26T18:04:35.363Z,6.30
2018-12-26T18:06:39.744Z,6.30
2018-12-26T18:08:44.395Z,6.30
2018-12-26T18:10:48.786Z,6.30
2018-12-26T18:12:53.185Z,6.30
2018-12-26T18:14:57.618Z,6.40
2018-12-26T18:17:03.028Z,6.40
2018-12-26T18:19:07.512Z,6.40
2018-12-26T18:21:11.951Z,6.40
2018-12-26T18:23:16.441Z,6.40
2018-12-26T18:25:20.863Z,6.40
2018-12-26T18:27:25.295Z,6.30
2018-12-26T18:29:29.669Z,6.30
2018-12-26T18:31:34.113Z,6.30
2018-12-26T18:33:38.464Z,6.30
2018-12-26T18:35:42.896Z,6.30
2018-12-26T18:37:47.294Z,6.30
2018-12-26T18:39:51.686Z,6.30
2018-12-26T18:41:56.114Z,6.30
2018-12-26T18:44:01.308Z,6.30
2018-12-26T18:46:06.682Z,6.30
2018-12-26T18:48:11.061Z,6.30
2018-12-26T18:50:15.461Z,6.20
2018-12-26T18:52:19.931Z,6.20
2018-12-26T18:54:24.405Z,6.20
2018-12-26T18:56:28.756Z,6.20
2018-12-26T18:58:33.088Z,6.20
2018-12-26T19:00:38.323Z,6.20
2018-12-26T19:02:42.732Z,6.20
2018-12-26T19:04:47.246Z,6.20
2018-12-26T19:06:51.691Z,6.10
2018-12-26T19:08:56.069Z,6.20
2018-12-26T19:11:00.600Z,6.10
2018-12-26T19:13:05.049Z,6.00
2018-12-26T19:15:09.985Z,6.00
2018-12-26T19:17:14.338Z,6.00
2018-12-26T19:19:18.805Z,6.00
2018-12-26T19:21:23.233Z,6.00
2018-12-26T19:23:27.696Z,5.90
2018-12-26T19:25:32.262Z,6.00
2018-12-26T19:27:36.699Z,5.90
2018-12-26T19:29:41.151Z,5.90
2018-12-26T19:31:45.710Z,5.90
2018-12-26T19:33:50.125Z,5.90
2018-12-26T19:35:54.554Z,5.90
2018-12-26T19:37:59.000Z,5.90
2018-12-26T19:40:03.587Z,5.80
2018-12-26T19:42:08.012Z,5.80
2018-12-26T19:44:12.492Z,5.80
2018-12-26T19:46:16.899Z,5.80
2018-12-26T19:48:21.365Z,5.80
2018-12-26T19:50:25.763Z,5.80
2018-12-26T19:52:30.203Z,5.80
2018-12-26T19:54:34.632Z,5.80
2018-12-26T19:56:39.226Z,5.80
2018-12-26T19:58:43.667Z,5.80
2018-12-26T20:00:48.241Z,5.80
2018-12-26T20:02:52.758Z,5.70
2018-12-26T20:04:57.195Z,5.80
2018-12-26T20:07:01.642Z,5.80
2018-12-26T20:09:07.296Z,5.70
2018-12-26T20:11:11.748Z,5.70
2018-12-26T20:13:16.201Z,5.60
2018-12-26T20:15:20.624Z,5.70
2018-12-26T20:17:25.111Z,5.60
2018-12-26T20:19:29.485Z,5.50
2018-12-26T20:21:33.901Z,5.50
2018-12-26T20:23:38.436Z,5.50
2018-12-26T20:25:42.855Z,5.50
2018-12-26T20:27:47.258Z,5.50
2018-12-26T20:29:51.772Z,5.50
2018-12-26T20:31:57.008Z,5.40
2018-12-26T20:34:00.707Z,5.40
2018-12-26T20:36:05.186Z,5.40
2018-12-26T20:38:09.736Z,5.40
2018-12-26T20:40:14.162Z,5.30
2018-12-26T20:42:18.605Z,5.40
2018-12-26T20:44:23.098Z,5.30
2018-12-26T20:46:27.624Z,5.30
2018-12-26T20:48:32.111Z,5.40
2018-12-26T20:50:36.596Z,5.30
2018-12-26T20:52:41.165Z,5.30
2018-12-26T20:54:45.581Z,5.40
2018-12-26T20:56:50.094Z,5.30
2018-12-26T20:58:54.481Z,5.40
2018-12-26T21:00:58.923Z,5.30
2018-12-26T21:03:03.366Z,5.30
2018-12-26T21:05:09.291Z,5.30
2018-12-26T21:07:14.347Z,5.30
2018-12-26T21:09:18.803Z,5.20
2018-12-26T21:11:23.261Z,5.20
2018-12-26T21:13:27.703Z,5.20
2018-12-26T21:15:32.771Z,5.20
2018-12-26T21:17:37.258Z,5.20
2018-12-26T21:19:41.694Z,5.10
2018-12-26T21:21:46.152Z,5.10
2018-12-26T21:23:50.757Z,5.10
2018-12-26T21:25:55.197Z,5.00
2018-12-26T21:27:59.705Z,5.00
2018-12-26T21:30:05.080Z,5.00
2018-12-26T21:32:14.027Z,5.00
2018-12-26T21:34:14.089Z,5.00
2018-12-26T21:36:18.576Z,5.00
2018-12-26T21:38:23.010Z,5.00
2018-12-26T21:40:27.455Z,5.00
2018-12-26T21:42:31.986Z,5.00
2018-12-26T21:44:36.446Z,5.00
2018-12-26T21:46:41.148Z,5.00
2018-12-26T21:48:45.614Z,5.00
2018-12-26T21:50:53.239Z,5.00
2018-12-26T21:52:58.005Z,5.00
2018-12-26T21:55:02.524Z,5.00
2018-12-26T21:57:07.005Z,5.00
2018-12-26T21:59:11.910Z,5.00
2018-12-26T22:01:16.395Z,5.00
2018-12-26T22:03:20.892Z,5.00
2018-12-26T22:05:25.324Z,5.00
2018-12-26T22:07:30.092Z,4.90
2018-12-26T22:09:34.600Z,4.90
2018-12-26T22:11:39.027Z,4.90
2018-12-26T22:13:43.488Z,4.90
2018-12-26T22:15:47.925Z,4.90
2018-12-26T22:17:52.330Z,4.90
2018-12-26T22:19:56.777Z,4.90
2018-12-26T22:22:01.237Z,4.90
2018-12-26T22:24:05.624Z,4.80
2018-12-26T22:26:09.992Z,4.90
2018-12-26T22:28:14.445Z,4.80
2018-12-26T22:30:19.419Z,4.80
2018-12-26T22:32:30.610Z,4.90
2018-12-26T22:34:28.598Z,4.80
2018-12-26T22:36:33.006Z,4.80
2018-12-26T22:38:37.453Z,4.80
2018-12-26T22:40:41.838Z,4.70
2018-12-26T22:42:46.187Z,4.80
2018-12-26T22:44:50.583Z,4.80
2018-12-26T22:46:56.029Z,4.80
2018-12-26T22:49:00.426Z,4.80
2018-12-26T22:51:04.841Z,4.80
2018-12-26T22:53:09.345Z,4.80
2018-12-26T22:55:13.762Z,4.70
2018-12-26T22:57:19.162Z,4.70
2018-12-26T22:59:23.559Z,4.70
2018-12-26T23:01:28.035Z,4.70
2018-12-26T23:03:32.498Z,4.60
2018-12-26T23:05:36.892Z,4.60
2018-12-26T23:07:41.241Z,4.60
2018-12-26T23:09:45.646Z,4.70
2018-12-26T23:11:50.046Z,4.60
2018-12-26T23:13:54.552Z,4.60
2018-12-26T23:15:58.957Z,4.60
2018-12-26T23:18:03.338Z,4.60
2018-12-26T23:20:07.705Z,4.50
2018-12-26T23:22:12.865Z,4.50
2018-12-26T23:24:17.224Z,4.50
2018-12-26T23:26:21.694Z,4.60
2018-12-26T23:28:26.075Z,4.60
2018-12-26T23:30:30.497Z,4.50
2018-12-26T23:32:34.830Z,4.50
2018-12-26T23:34:39.270Z,4.50
2018-12-26T23:36:43.620Z,4.50
2018-12-26T23:38:48.013Z,4.50
2018-12-26T23:40:52.410Z,4.40
2018-12-26T23:42:56.770Z,4.50
2018-12-26T23:45:01.159Z,4.40
2018-12-26T23:47:05.522Z,4.40
2018-12-26T23:49:09.988Z,4.30
2018-12-26T23:51:14.339Z,4.30
2018-12-26T23:53:18.778Z,4.30
2018-12-26T23:55:23.360Z,4.40
2018-12-26T23:57:27.771Z,4.30
2018-12-26T23:59:32.125Z,4.40
